Terminal Aerodrome Forecast
Issued by NWS Goodland, KS

Home | Current Version | Previous Version | Text Only | Print | Product List | Glossary On
Versions: 1 2 3 4 5 6 7 8 9 10 11 12 13 14 15
000
FTUS43 KGLD 161600 AAA
TAFGLD
TAF AMD
KGLD 161613Z 1616/1712 32025G45KT P6SM BKN250
     FM162100 32018G30KT P6SM FEW045 SCT250
     FM170000 35013KT P6SM SCT090 BKN200
     FM170900 04010KT P6SM BKN090=

USA.gov is the U.S. government's official web portal to all federal, state and local government web resources and services.